Nashville International Airport
KBNA : now visible

Airfield :











YOU CAN JOIN US ON...

 
LOGIN :

Register | Disclaimer

   EN    FR    IT 

 









Legend :    VFR   Marginal VFR   IFR   Intensive IFR   Very Intensive IFR
Visi :
Ceiling :
>= 8 km
>= 3000ft
5 to 8 km
1000 to 3000 ft
1500m to 5 km
500 to 1000 ft
800 to 1500m
200 to 500 ft
< 800m
< 200 ft
Symbols :   Thunderstorms  Fog  Heavy snow  Heavy precipitations  Wind > 20 kt







- Airport Elevation : 599 ft
- IATA code : BNA


KBNA - Nashville International

CURRENT METAR :
  • 172153Z 28010KT 10SM BKN007 OVC011 09/07 A2980 RMK AO2 RAE42 SLP091 P0010 T00890072 $

EXPIRED METARs :
  • 172053Z 30006KT 3SM RA BR BKN008 BKN015 OVC030 09/08 A2979 RMK AO2 SFC VIS 4 RAB1958 SLP087 P0026 60031 T00940078 55003 $
  • 172038Z 21004KT 3SM RA BR BKN008 BKN015 OVC030 09/08 A2977 RMK AO2 RAB1958 P0021 T00940078 $
  • 172023Z 24004KT 1 1/4SM R02L/5000VP6000FT +RA BR BKN009 BKN015 OVC025 09/08 A2977 RMK AO2 SFC VIS 1 3/4 RAB1958 P0011 T00890078 $
  • 172013Z 26004KT 1 3/4SM R02L/5000VP6000FT RA BR OVC007 09/08 A2976 RMK AO2 VIS 3/4V5 RAB1958 P0002 T00890078 $
  • 171953Z 30005KT 10SM BKN007 OVC011 09/07 A2976 RMK AO2 RAB22E52 SLP078 P0005 T00940072 $
  • 171934Z 26004KT 3SM R02L/5500VP6000FT -RA BR BKN010 OVC016 09/07 A2977 RMK AO2 TWR VIS 5 RAB22 P0004 T00890072 $

TAF KBNA
Valid from the 17 at 22:00 until the 18 at 18:00 UTC


172211Z 1722/1818 28010KT P6SM VCSH BKN007 OVC011
TEMPO 1722/1723 2SM -SHRA BR BKN004 OVC007
FM180000 32009KT 5SM BR OVC015
FM180900 32007KT P6SM OVC015
FM181500 33007KT P6SM OVC035
KZME FIR / North America



MET'MAP, your aeronautical weather chart ! - Copyright ORBIFLY December 2007 - Disclaimer

ORBIFLY MET'MAP TEAM :

Programming & Development : Alexandra Zaïnal
Concept & Development : Baudouin d'Aumeries
Co-Development & Prog : Marc-Olivier Méhu
Technical & hardware support : Manuel Goepfert

Contact : metmap@orbifly.com




SOURCES & CREDITS :

   NOAA       Earth
Advisory